sensor_id;sensor_type;location;lat;lon;timestamp;P1;durP1;ratioP1;P2;durP2;ratioP2
60867;SDS011;46702;48.370;10.794;2023-12-22T00:00:29;0.63;;;0.63;;
60867;SDS011;46702;48.370;10.794;2023-12-22T00:02:55;1.15;;;0.82;;
60867;SDS011;46702;48.370;10.794;2023-12-22T00:05:20;0.80;;;0.77;;
60867;SDS011;46702;48.370;10.794;2023-12-22T00:07:46;1.20;;;0.80;;
60867;SDS011;46702;48.370;10.794;2023-12-22T00:10:12;0.98;;;0.75;;
60867;SDS011;46702;48.370;10.794;2023-12-22T00:12:37;0.82;;;0.82;;
60867;SDS011;46702;48.370;10.794;2023-12-22T00:15:04;0.90;;;0.90;;
60867;SDS011;46702;48.370;10.794;2023-12-22T00:17:30;0.73;;;0.73;;
60867;SDS011;46702;48.370;10.794;2023-12-22T00:19:56;0.70;;;0.70;;
60867;SDS011;46702;48.370;10.794;2023-12-22T00:22:24;0.50;;;0.50;;
60867;SDS011;46702;48.370;10.794;2023-12-22T00:24:52;0.50;;;0.50;;
60867;SDS011;46702;48.370;10.794;2023-12-22T00:27:18;0.50;;;0.50;;
60867;SDS011;46702;48.370;10.794;2023-12-22T00:29:44;0.50;;;0.50;;
60867;SDS011;46702;48.370;10.794;2023-12-22T00:32:10;0.50;;;0.50;;
60867;SDS011;46702;48.370;10.794;2023-12-22T00:34:35;0.60;;;0.60;;
60867;SDS011;46702;48.370;10.794;2023-12-22T00:37:01;0.60;;;0.60;;
60867;SDS011;46702;48.370;10.794;2023-12-22T00:39:29;0.60;;;0.60;;
60867;SDS011;46702;48.370;10.794;2023-12-22T00:41:56;0.50;;;0.50;;
60867;SDS011;46702;48.370;10.794;2023-12-22T00:44:21;0.63;;;0.60;;
60867;SDS011;46702;48.370;10.794;2023-12-22T00:46:54;0.63;;;0.63;;
60867;SDS011;46702;48.370;10.794;2023-12-22T00:49:23;0.60;;;0.60;;
60867;SDS011;46702;48.370;10.794;2023-12-22T00:51:48;0.60;;;0.60;;
60867;SDS011;46702;48.370;10.794;2023-12-22T00:54:14;0.52;;;0.52;;
60867;SDS011;46702;48.370;10.794;2023-12-22T00:56:40;0.55;;;0.55;;
60867;SDS011;46702;48.370;10.794;2023-12-22T00:59:05;0.90;;;0.90;;
60867;SDS011;46702;48.370;10.794;2023-12-22T01:01:31;0.80;;;0.60;;
60867;SDS011;46702;48.370;10.794;2023-12-22T01:03:56;0.80;;;0.80;;
60867;SDS011;46702;48.370;10.794;2023-12-22T01:06:22;0.57;;;0.57;;
60867;SDS011;46702;48.370;10.794;2023-12-22T01:08:48;0.60;;;0.60;;
60867;SDS011;46702;48.370;10.794;2023-12-22T01:11:15;0.60;;;0.60;;
60867;SDS011;46702;48.370;10.794;2023-12-22T01:13:44;0.60;;;0.60;;
60867;SDS011;46702;48.370;10.794;2023-12-22T01:16:10;0.60;;;0.60;;
60867;SDS011;46702;48.370;10.794;2023-12-22T01:18:35;0.60;;;0.60;;
60867;SDS011;46702;48.370;10.794;2023-12-22T01:21:01;0.60;;;0.60;;
60867;SDS011;46702;48.370;10.794;2023-12-22T01:23:27;0.70;;;0.70;;
60867;SDS011;46702;48.370;10.794;2023-12-22T01:25:53;0.60;;;0.60;;
60867;SDS011;46702;48.370;10.794;2023-12-22T01:28:18;0.70;;;0.70;;
60867;SDS011;46702;48.370;10.794;2023-12-22T01:30:44;0.60;;;0.60;;
60867;SDS011;46702;48.370;10.794;2023-12-22T01:33:09;0.70;;;0.70;;
60867;SDS011;46702;48.370;10.794;2023-12-22T01:35:35;0.70;;;0.70;;
60867;SDS011;46702;48.370;10.794;2023-12-22T01:38:00;0.98;;;0.60;;
60867;SDS011;46702;48.370;10.794;2023-12-22T01:40:26;0.60;;;0.60;;
60867;SDS011;46702;48.370;10.794;2023-12-22T01:42:52;0.52;;;0.52;;
60867;SDS011;46702;48.370;10.794;2023-12-22T01:45:17;0.70;;;0.70;;
60867;SDS011;46702;48.370;10.794;2023-12-22T01:47:43;0.60;;;0.60;;
60867;SDS011;46702;48.370;10.794;2023-12-22T01:50:11;0.80;;;0.80;;
60867;SDS011;46702;48.370;10.794;2023-12-22T01:52:40;0.68;;;0.68;;
60867;SDS011;46702;48.370;10.794;2023-12-22T01:55:08;0.88;;;0.70;;
60867;SDS011;46702;48.370;10.794;2023-12-22T01:57:36;0.70;;;0.70;;
60867;SDS011;46702;48.370;10.794;2023-12-22T02:00:03;0.70;;;0.70;;
60867;SDS011;46702;48.370;10.794;2023-12-22T02:02:29;0.77;;;0.77;;
60867;SDS011;46702;48.370;10.794;2023-12-22T02:04:56;0.70;;;0.70;;
60867;SDS011;46702;48.370;10.794;2023-12-22T02:07:23;0.70;;;0.70;;
60867;SDS011;46702;48.370;10.794;2023-12-22T02:09:48;0.70;;;0.70;;
60867;SDS011;46702;48.370;10.794;2023-12-22T02:12:14;0.70;;;0.70;;
60867;SDS011;46702;48.370;10.794;2023-12-22T02:14:40;0.68;;;0.68;;
60867;SDS011;46702;48.370;10.794;2023-12-22T02:17:14;0.70;;;0.70;;
60867;SDS011;46702;48.370;10.794;2023-12-22T02:19:47;0.60;;;0.60;;
60867;SDS011;46702;48.370;10.794;2023-12-22T02:22:13;0.60;;;0.60;;
60867;SDS011;46702;48.370;10.794;2023-12-22T02:24:39;0.70;;;0.70;;
60867;SDS011;46702;48.370;10.794;2023-12-22T02:29:37;0.70;;;0.70;;
60867;SDS011;46702;48.370;10.794;2023-12-22T02:32:07;0.70;;;0.70;;
60867;SDS011;46702;48.370;10.794;2023-12-22T02:34:39;0.60;;;0.60;;
60867;SDS011;46702;48.370;10.794;2023-12-22T02:37:08;1.88;;;1.77;;
60867;SDS011;46702;48.370;10.794;2023-12-22T02:39:35;1.88;;;1.77;;
60867;SDS011;46702;48.370;10.794;2023-12-22T02:42:02;1.30;;;1.30;;
60867;SDS011;46702;48.370;10.794;2023-12-22T02:44:29;0.95;;;0.95;;
60867;SDS011;46702;48.370;10.794;2023-12-22T02:46:55;0.70;;;0.70;;
60867;SDS011;46702;48.370;10.794;2023-12-22T02:49:21;1.25;;;0.80;;
60867;SDS011;46702;48.370;10.794;2023-12-22T02:51:47;0.80;;;0.80;;
60867;SDS011;46702;48.370;10.794;2023-12-22T02:54:13;0.80;;;0.80;;
60867;SDS011;46702;48.370;10.794;2023-12-22T02:56:38;0.95;;;0.70;;
60867;SDS011;46702;48.370;10.794;2023-12-22T02:59:04;1.67;;;0.70;;
60867;SDS011;46702;48.370;10.794;2023-12-22T03:01:29;0.70;;;0.70;;
60867;SDS011;46702;48.370;10.794;2023-12-22T03:03:55;0.60;;;0.60;;
60867;SDS011;46702;48.370;10.794;2023-12-22T03:06:21;0.70;;;0.70;;
60867;SDS011;46702;48.370;10.794;2023-12-22T03:08:46;0.70;;;0.70;;
60867;SDS011;46702;48.370;10.794;2023-12-22T03:11:12;0.70;;;0.70;;
60867;SDS011;46702;48.370;10.794;2023-12-22T03:13:37;0.80;;;0.80;;
60867;SDS011;46702;48.370;10.794;2023-12-22T03:16:07;0.85;;;0.85;;
60867;SDS011;46702;48.370;10.794;2023-12-22T03:18:33;0.60;;;0.60;;
60867;SDS011;46702;48.370;10.794;2023-12-22T03:20:59;0.60;;;0.60;;
60867;SDS011;46702;48.370;10.794;2023-12-22T03:23:24;0.82;;;0.80;;
60867;SDS011;46702;48.370;10.794;2023-12-22T03:25:50;0.68;;;0.68;;
60867;SDS011;46702;48.370;10.794;2023-12-22T03:28:16;1.25;;;1.25;;
60867;SDS011;46702;48.370;10.794;2023-12-22T03:30:41;1.27;;;1.20;;
60867;SDS011;46702;48.370;10.794;2023-12-22T03:33:07;1.80;;;1.00;;
60867;SDS011;46702;48.370;10.794;2023-12-22T03:35:33;1.95;;;0.98;;
60867;SDS011;46702;48.370;10.794;2023-12-22T03:37:58;0.85;;;0.85;;
60867;SDS011;46702;48.370;10.794;2023-12-22T03:40:24;1.45;;;0.90;;
60867;SDS011;46702;48.370;10.794;2023-12-22T03:42:50;1.13;;;1.10;;
60867;SDS011;46702;48.370;10.794;2023-12-22T03:45:15;0.80;;;0.80;;
60867;SDS011;46702;48.370;10.794;2023-12-22T03:47:41;1.58;;;1.05;;
60867;SDS011;46702;48.370;10.794;2023-12-22T03:50:07;1.58;;;1.10;;
60867;SDS011;46702;48.370;10.794;2023-12-22T03:52:33;1.13;;;1.10;;
60867;SDS011;46702;48.370;10.794;2023-12-22T03:54:59;0.98;;;0.82;;
60867;SDS011;46702;48.370;10.794;2023-12-22T03:57:25;1.40;;;1.10;;
60867;SDS011;46702;48.370;10.794;2023-12-22T03:59:51;1.65;;;1.00;;
60867;SDS011;46702;48.370;10.794;2023-12-22T04:02:16;1.17;;;1.10;;
60867;SDS011;46702;48.370;10.794;2023-12-22T04:04:42;1.08;;;1.00;;
60867;SDS011;46702;48.370;10.794;2023-12-22T04:07:08;0.82;;;0.82;;
60867;SDS011;46702;48.370;10.794;2023-12-22T04:09:33;0.85;;;0.85;;
60867;SDS011;46702;48.370;10.794;2023-12-22T04:12:01;0.85;;;0.80;;
60867;SDS011;46702;48.370;10.794;2023-12-22T04:14:28;0.90;;;0.90;;
60867;SDS011;46702;48.370;10.794;2023-12-22T04:16:54;0.80;;;0.80;;
60867;SDS011;46702;48.370;10.794;2023-12-22T04:19:19;1.73;;;1.02;;
60867;SDS011;46702;48.370;10.794;2023-12-22T04:21:45;1.35;;;1.08;;
60867;SDS011;46702;48.370;10.794;2023-12-22T04:24:11;0.88;;;0.88;;
60867;SDS011;46702;48.370;10.794;2023-12-22T04:26:36;1.17;;;1.08;;
60867;SDS011;46702;48.370;10.794;2023-12-22T04:29:02;4.40;;;1.10;;
60867;SDS011;46702;48.370;10.794;2023-12-22T04:31:27;0.70;;;0.70;;
60867;SDS011;46702;48.370;10.794;2023-12-22T04:33:53;1.42;;;1.20;;
60867;SDS011;46702;48.370;10.794;2023-12-22T04:36:18;0.60;;;0.60;;
60867;SDS011;46702;48.370;10.794;2023-12-22T04:38:44;0.82;;;0.82;;
60867;SDS011;46702;48.370;10.794;2023-12-22T04:41:10;1.73;;;0.93;;
60867;SDS011;46702;48.370;10.794;2023-12-22T04:43:35;2.55;;;1.17;;
60867;SDS011;46702;48.370;10.794;2023-12-22T04:46:01;1.33;;;1.15;;
60867;SDS011;46702;48.370;10.794;2023-12-22T04:48:26;1.55;;;1.13;;
60867;SDS011;46702;48.370;10.794;2023-12-22T04:50:52;1.55;;;1.05;;
60867;SDS011;46702;48.370;10.794;2023-12-22T04:53:18;1.23;;;0.90;;
60867;SDS011;46702;48.370;10.794;2023-12-22T04:55:43;4.95;;;1.10;;
60867;SDS011;46702;48.370;10.794;2023-12-22T04:58:09;1.20;;;1.10;;
60867;SDS011;46702;48.370;10.794;2023-12-22T05:00:34;2.20;;;1.20;;
60867;SDS011;46702;48.370;10.794;2023-12-22T05:03:00;1.55;;;1.20;;
60867;SDS011;46702;48.370;10.794;2023-12-22T05:05:25;3.40;;;1.40;;
60867;SDS011;46702;48.370;10.794;2023-12-22T05:07:51;3.53;;;1.30;;
60867;SDS011;46702;48.370;10.794;2023-12-22T05:10:16;1.83;;;1.13;;
60867;SDS011;46702;48.370;10.794;2023-12-22T05:12:42;1.20;;;1.10;;
60867;SDS011;46702;48.370;10.794;2023-12-22T05:15:08;1.05;;;1.05;;
60867;SDS011;46702;48.370;10.794;2023-12-22T05:17:34;2.90;;;1.25;;
60867;SDS011;46702;48.370;10.794;2023-12-22T05:19:59;2.10;;;1.20;;
60867;SDS011;46702;48.370;10.794;2023-12-22T05:22:25;0.98;;;0.88;;
60867;SDS011;46702;48.370;10.794;2023-12-22T05:24:51;1.10;;;1.00;;
60867;SDS011;46702;48.370;10.794;2023-12-22T05:27:16;2.15;;;1.08;;
60867;SDS011;46702;48.370;10.794;2023-12-22T05:29:43;3.00;;;1.20;;
60867;SDS011;46702;48.370;10.794;2023-12-22T05:32:08;1.42;;;1.10;;
60867;SDS011;46702;48.370;10.794;2023-12-22T05:34:34;1.15;;;1.05;;
60867;SDS011;46702;48.370;10.794;2023-12-22T05:36:59;0.80;;;0.80;;
60867;SDS011;46702;48.370;10.794;2023-12-22T05:39:25;0.95;;;0.95;;
60867;SDS011;46702;48.370;10.794;2023-12-22T05:41:51;1.23;;;0.93;;
60867;SDS011;46702;48.370;10.794;2023-12-22T05:44:16;1.42;;;1.05;;
60867;SDS011;46702;48.370;10.794;2023-12-22T05:46:42;1.00;;;0.85;;
60867;SDS011;46702;48.370;10.794;2023-12-22T05:49:08;1.10;;;0.90;;
60867;SDS011;46702;48.370;10.794;2023-12-22T05:51:40;1.52;;;0.70;;
60867;SDS011;46702;48.370;10.794;2023-12-22T05:54:09;1.35;;;0.75;;
60867;SDS011;46702;48.370;10.794;2023-12-22T05:56:36;1.23;;;1.15;;
60867;SDS011;46702;48.370;10.794;2023-12-22T05:59:02;1.10;;;1.10;;
60867;SDS011;46702;48.370;10.794;2023-12-22T06:01:28;0.80;;;0.80;;
60867;SDS011;46702;48.370;10.794;2023-12-22T06:03:54;1.58;;;1.10;;
60867;SDS011;46702;48.370;10.794;2023-12-22T06:06:20;1.88;;;0.82;;
60867;SDS011;46702;48.370;10.794;2023-12-22T06:08:46;1.23;;;1.15;;
60867;SDS011;46702;48.370;10.794;2023-12-22T06:11:12;0.70;;;0.70;;
60867;SDS011;46702;48.370;10.794;2023-12-22T06:13:38;1.17;;;1.02;;
60867;SDS011;46702;48.370;10.794;2023-12-22T06:16:03;2.08;;;1.30;;
60867;SDS011;46702;48.370;10.794;2023-12-22T06:18:29;1.92;;;1.20;;
60867;SDS011;46702;48.370;10.794;2023-12-22T06:20:55;2.13;;;1.35;;
60867;SDS011;46702;48.370;10.794;2023-12-22T06:23:21;1.10;;;1.00;;
60867;SDS011;46702;48.370;10.794;2023-12-22T06:25:47;3.45;;;1.40;;
60867;SDS011;46702;48.370;10.794;2023-12-22T06:28:13;1.08;;;1.00;;
60867;SDS011;46702;48.370;10.794;2023-12-22T06:33:08;0.85;;;0.85;;
60867;SDS011;46702;48.370;10.794;2023-12-22T06:35:33;2.20;;;1.35;;
60867;SDS011;46702;48.370;10.794;2023-12-22T06:37:59;3.83;;;0.90;;
60867;SDS011;46702;48.370;10.794;2023-12-22T06:40:28;3.00;;;1.17;;
60867;SDS011;46702;48.370;10.794;2023-12-22T06:42:54;3.25;;;1.35;;
60867;SDS011;46702;48.370;10.794;2023-12-22T06:45:20;3.60;;;2.05;;
60867;SDS011;46702;48.370;10.794;2023-12-22T06:47:45;1.58;;;1.35;;
60867;SDS011;46702;48.370;10.794;2023-12-22T06:50:11;1.83;;;1.40;;
60867;SDS011;46702;48.370;10.794;2023-12-22T06:52:36;5.35;;;1.80;;
60867;SDS011;46702;48.370;10.794;2023-12-22T06:55:02;1.08;;;1.08;;
60867;SDS011;46702;48.370;10.794;2023-12-22T06:57:28;2.30;;;1.40;;
60867;SDS011;46702;48.370;10.794;2023-12-22T06:59:54;3.40;;;1.65;;
60867;SDS011;46702;48.370;10.794;2023-12-22T07:02:20;2.80;;;1.23;;
60867;SDS011;46702;48.370;10.794;2023-12-22T07:07:31;1.63;;;1.00;;
60867;SDS011;46702;48.370;10.794;2023-12-22T07:09:57;1.80;;;1.08;;
60867;SDS011;46702;48.370;10.794;2023-12-22T07:12:22;0.90;;;0.90;;
60867;SDS011;46702;48.370;10.794;2023-12-22T07:14:48;2.78;;;1.10;;
60867;SDS011;46702;48.370;10.794;2023-12-22T07:17:13;2.05;;;1.17;;
60867;SDS011;46702;48.370;10.794;2023-12-22T07:19:39;2.22;;;1.40;;
60867;SDS011;46702;48.370;10.794;2023-12-22T07:22:05;2.60;;;1.38;;
60867;SDS011;46702;48.370;10.794;2023-12-22T07:24:30;2.75;;;1.50;;
60867;SDS011;46702;48.370;10.794;2023-12-22T07:26:56;6.13;;;1.60;;
60867;SDS011;46702;48.370;10.794;2023-12-22T07:29:21;1.33;;;1.23;;
60867;SDS011;46702;48.370;10.794;2023-12-22T07:31:47;1.10;;;1.00;;
60867;SDS011;46702;48.370;10.794;2023-12-22T07:34:13;1.58;;;1.15;;
60867;SDS011;46702;48.370;10.794;2023-12-22T07:36:39;4.63;;;1.25;;
60867;SDS011;46702;48.370;10.794;2023-12-22T07:39:04;3.10;;;1.10;;
60867;SDS011;46702;48.370;10.794;2023-12-22T07:41:31;1.50;;;1.30;;
60867;SDS011;46702;48.370;10.794;2023-12-22T07:43:57;5.03;;;1.20;;
60867;SDS011;46702;48.370;10.794;2023-12-22T07:46:23;6.88;;;1.40;;
60867;SDS011;46702;48.370;10.794;2023-12-22T07:48:48;1.67;;;1.00;;
60867;SDS011;46702;48.370;10.794;2023-12-22T07:51:15;1.40;;;1.00;;
60867;SDS011;46702;48.370;10.794;2023-12-22T07:53:41;1.45;;;0.95;;
60867;SDS011;46702;48.370;10.794;2023-12-22T07:56:07;3.58;;;1.60;;
60867;SDS011;46702;48.370;10.794;2023-12-22T07:58:33;1.80;;;1.38;;
60867;SDS011;46702;48.370;10.794;2023-12-22T08:00:59;5.57;;;1.17;;
60867;SDS011;46702;48.370;10.794;2023-12-22T08:03:24;0.90;;;0.90;;
60867;SDS011;46702;48.370;10.794;2023-12-22T08:05:50;4.35;;;1.10;;
60867;SDS011;46702;48.370;10.794;2023-12-22T08:08:15;3.20;;;1.25;;
60867;SDS011;46702;48.370;10.794;2023-12-22T08:10:41;2.13;;;1.20;;
60867;SDS011;46702;48.370;10.794;2023-12-22T08:13:06;3.35;;;1.40;;
60867;SDS011;46702;48.370;10.794;2023-12-22T08:15:32;1.98;;;0.82;;
60867;SDS011;46702;48.370;10.794;2023-12-22T08:17:57;2.60;;;1.00;;
60867;SDS011;46702;48.370;10.794;2023-12-22T08:20:23;4.75;;;1.23;;
60867;SDS011;46702;48.370;10.794;2023-12-22T08:22:50;1.08;;;0.98;;
60867;SDS011;46702;48.370;10.794;2023-12-22T08:25:16;1.55;;;1.00;;
60867;SDS011;46702;48.370;10.794;2023-12-22T08:27:45;2.08;;;1.33;;
60867;SDS011;46702;48.370;10.794;2023-12-22T08:30:11;0.88;;;0.88;;
60867;SDS011;46702;48.370;10.794;2023-12-22T08:32:37;1.23;;;1.10;;
60867;SDS011;46702;48.370;10.794;2023-12-22T08:35:04;0.93;;;0.93;;
60867;SDS011;46702;48.370;10.794;2023-12-22T08:37:30;1.20;;;0.90;;
60867;SDS011;46702;48.370;10.794;2023-12-22T08:39:56;3.60;;;1.80;;
60867;SDS011;46702;48.370;10.794;2023-12-22T08:42:22;1.05;;;0.95;;
60867;SDS011;46702;48.370;10.794;2023-12-22T08:44:48;1.75;;;0.82;;
60867;SDS011;46702;48.370;10.794;2023-12-22T08:47:14;5.00;;;1.23;;
60867;SDS011;46702;48.370;10.794;2023-12-22T08:49:40;2.83;;;0.90;;
60867;SDS011;46702;48.370;10.794;2023-12-22T08:52:06;2.13;;;1.00;;
60867;SDS011;46702;48.370;10.794;2023-12-22T08:54:32;0.95;;;0.95;;
60867;SDS011;46702;48.370;10.794;2023-12-22T08:56:59;1.70;;;1.30;;
60867;SDS011;46702;48.370;10.794;2023-12-22T08:59:25;1.45;;;1.35;;
60867;SDS011;46702;48.370;10.794;2023-12-22T09:01:51;1.55;;;1.00;;
60867;SDS011;46702;48.370;10.794;2023-12-22T09:04:16;1.75;;;0.95;;
60867;SDS011;46702;48.370;10.794;2023-12-22T09:06:42;2.83;;;0.90;;
60867;SDS011;46702;48.370;10.794;2023-12-22T09:09:08;2.53;;;1.55;;
60867;SDS011;46702;48.370;10.794;2023-12-22T09:11:34;3.40;;;1.23;;
60867;SDS011;46702;48.370;10.794;2023-12-22T09:14:01;1.63;;;1.27;;
60867;SDS011;46702;48.370;10.794;2023-12-22T09:16:33;2.60;;;1.27;;
60867;SDS011;46702;48.370;10.794;2023-12-22T09:18:59;0.88;;;0.73;;
60867;SDS011;46702;48.370;10.794;2023-12-22T09:21:24;2.60;;;1.13;;
60867;SDS011;46702;48.370;10.794;2023-12-22T09:23:51;2.63;;;1.17;;
60867;SDS011;46702;48.370;10.794;2023-12-22T09:26:16;2.08;;;1.13;;
60867;SDS011;46702;48.370;10.794;2023-12-22T09:28:43;2.05;;;1.10;;
60867;SDS011;46702;48.370;10.794;2023-12-22T09:31:09;2.42;;;1.20;;
60867;SDS011;46702;48.370;10.794;2023-12-22T09:33:35;2.22;;;0.90;;
60867;SDS011;46702;48.370;10.794;2023-12-22T09:36:01;0.77;;;0.77;;
60867;SDS011;46702;48.370;10.794;2023-12-22T09:38:27;1.95;;;1.25;;
60867;SDS011;46702;48.370;10.794;2023-12-22T09:40:54;1.55;;;1.20;;
60867;SDS011;46702;48.370;10.794;2023-12-22T09:43:21;2.60;;;0.70;;
60867;SDS011;46702;48.370;10.794;2023-12-22T09:45:47;1.10;;;1.00;;
60867;SDS011;46702;48.370;10.794;2023-12-22T09:48:15;1.00;;;1.00;;
60867;SDS011;46702;48.370;10.794;2023-12-22T09:50:46;0.95;;;0.95;;
60867;SDS011;46702;48.370;10.794;2023-12-22T09:53:12;0.70;;;0.70;;
60867;SDS011;46702;48.370;10.794;2023-12-22T09:55:42;0.70;;;0.70;;
60867;SDS011;46702;48.370;10.794;2023-12-22T09:58:11;0.70;;;0.70;;
60867;SDS011;46702;48.370;10.794;2023-12-22T10:00:39;1.63;;;0.68;;
60867;SDS011;46702;48.370;10.794;2023-12-22T10:03:08;2.17;;;0.65;;
60867;SDS011;46702;48.370;10.794;2023-12-22T10:05:36;1.13;;;0.73;;
60867;SDS011;46702;48.370;10.794;2023-12-22T10:08:02;1.20;;;1.20;;
60867;SDS011;46702;48.370;10.794;2023-12-22T10:10:29;0.75;;;0.75;;
60867;SDS011;46702;48.370;10.794;2023-12-22T10:12:55;2.05;;;1.20;;
60867;SDS011;46702;48.370;10.794;2023-12-22T10:15:22;1.15;;;1.10;;
60867;SDS011;46702;48.370;10.794;2023-12-22T10:17:54;2.38;;;1.20;;
60867;SDS011;46702;48.370;10.794;2023-12-22T10:20:20;5.60;;;1.00;;
60867;SDS011;46702;48.370;10.794;2023-12-22T10:22:45;0.70;;;0.70;;
60867;SDS011;46702;48.370;10.794;2023-12-22T10:25:14;1.85;;;1.13;;
60867;SDS011;46702;48.370;10.794;2023-12-22T10:27:43;1.42;;;1.20;;
60867;SDS011;46702;48.370;10.794;2023-12-22T10:30:09;2.17;;;1.42;;
60867;SDS011;46702;48.370;10.794;2023-12-22T10:32:39;2.50;;;1.52;;
60867;SDS011;46702;48.370;10.794;2023-12-22T10:35:09;0.88;;;0.88;;
60867;SDS011;46702;48.370;10.794;2023-12-22T10:37:35;2.55;;;1.13;;
60867;SDS011;46702;48.370;10.794;2023-12-22T10:40:05;2.28;;;1.20;;
60867;SDS011;46702;48.370;10.794;2023-12-22T10:42:31;1.83;;;1.10;;
60867;SDS011;46702;48.370;10.794;2023-12-22T10:44:57;2.83;;;1.00;;
60867;SDS011;46702;48.370;10.794;2023-12-22T10:47:23;1.50;;;1.00;;
60867;SDS011;46702;48.370;10.794;2023-12-22T10:49:49;3.70;;;1.42;;
60867;SDS011;46702;48.370;10.794;2023-12-22T10:52:15;1.75;;;1.00;;
60867;SDS011;46702;48.370;10.794;2023-12-22T10:54:48;3.25;;;1.83;;
60867;SDS011;46702;48.370;10.794;2023-12-22T10:57:18;1.05;;;0.98;;
60867;SDS011;46702;48.370;10.794;2023-12-22T10:59:47;1.65;;;1.13;;
60867;SDS011;46702;48.370;10.794;2023-12-22T11:02:28;4.47;;;1.30;;
60867;SDS011;46702;48.370;10.794;2023-12-22T11:07:22;2.67;;;1.25;;
60867;SDS011;46702;48.370;10.794;2023-12-22T11:09:49;1.85;;;1.38;;
60867;SDS011;46702;48.370;10.794;2023-12-22T11:12:27;3.55;;;1.23;;
60867;SDS011;46702;48.370;10.794;2023-12-22T11:15:04;1.83;;;1.00;;
60867;SDS011;46702;48.370;10.794;2023-12-22T11:17:34;1.52;;;1.30;;
60867;SDS011;46702;48.370;10.794;2023-12-22T11:20:05;1.58;;;1.40;;
60867;SDS011;46702;48.370;10.794;2023-12-22T11:25:00;1.88;;;1.40;;
60867;SDS011;46702;48.370;10.794;2023-12-22T11:27:27;1.45;;;1.35;;
60867;SDS011;46702;48.370;10.794;2023-12-22T11:29:54;1.50;;;1.17;;
60867;SDS011;46702;48.370;10.794;2023-12-22T11:32:21;0.80;;;0.80;;
60867;SDS011;46702;48.370;10.794;2023-12-22T11:34:47;0.70;;;0.70;;
60867;SDS011;46702;48.370;10.794;2023-12-22T11:37:14;1.00;;;0.95;;
60867;SDS011;46702;48.370;10.794;2023-12-22T11:39:41;2.75;;;1.10;;
60867;SDS011;46702;48.370;10.794;2023-12-22T11:42:08;1.00;;;1.00;;
60867;SDS011;46702;48.370;10.794;2023-12-22T11:44:38;3.22;;;1.52;;
60867;SDS011;46702;48.370;10.794;2023-12-22T11:47:04;1.35;;;1.15;;
60867;SDS011;46702;48.370;10.794;2023-12-22T11:49:31;1.95;;;1.10;;
60867;SDS011;46702;48.370;10.794;2023-12-22T11:52:17;2.55;;;1.20;;
60867;SDS011;46702;48.370;10.794;2023-12-22T11:57:29;0.82;;;0.82;;
60867;SDS011;46702;48.370;10.794;2023-12-22T12:00:01;3.50;;;1.00;;
60867;SDS011;46702;48.370;10.794;2023-12-22T12:02:45;5.20;;;1.40;;
60867;SDS011;46702;48.370;10.794;2023-12-22T12:05:19;1.10;;;1.10;;
60867;SDS011;46702;48.370;10.794;2023-12-22T12:07:46;0.90;;;0.90;;
60867;SDS011;46702;48.370;10.794;2023-12-22T12:13:07;1.55;;;1.15;;
60867;SDS011;46702;48.370;10.794;2023-12-22T12:15:34;2.72;;;1.02;;
60867;SDS011;46702;48.370;10.794;2023-12-22T12:18:01;2.60;;;1.08;;
60867;SDS011;46702;48.370;10.794;2023-12-22T12:20:28;3.80;;;1.23;;
60867;SDS011;46702;48.370;10.794;2023-12-22T12:22:54;1.00;;;0.90;;
60867;SDS011;46702;48.370;10.794;2023-12-22T12:25:23;1.00;;;1.00;;
60867;SDS011;46702;48.370;10.794;2023-12-22T12:28:02;1.35;;;1.17;;
60867;SDS011;46702;48.370;10.794;2023-12-22T12:30:32;1.00;;;1.00;;
60867;SDS011;46702;48.370;10.794;2023-12-22T12:32:59;1.08;;;0.98;;
60867;SDS011;46702;48.370;10.794;2023-12-22T12:35:32;2.95;;;1.88;;
60867;SDS011;46702;48.370;10.794;2023-12-22T12:38:02;1.73;;;1.20;;
60867;SDS011;46702;48.370;10.794;2023-12-22T12:40:28;2.83;;;1.20;;
60867;SDS011;46702;48.370;10.794;2023-12-22T12:42:56;1.33;;;1.05;;
60867;SDS011;46702;48.370;10.794;2023-12-22T12:45:22;1.08;;;1.08;;
60867;SDS011;46702;48.370;10.794;2023-12-22T12:48:01;1.77;;;1.05;;
60867;SDS011;46702;48.370;10.794;2023-12-22T12:50:28;1.92;;;1.45;;
60867;SDS011;46702;48.370;10.794;2023-12-22T12:52:56;2.20;;;1.17;;
60867;SDS011;46702;48.370;10.794;2023-12-22T12:55:22;0.90;;;0.90;;
60867;SDS011;46702;48.370;10.794;2023-12-22T12:57:53;1.65;;;1.20;;
60867;SDS011;46702;48.370;10.794;2023-12-22T13:00:31;2.55;;;1.67;;
60867;SDS011;46702;48.370;10.794;2023-12-22T13:03:01;1.20;;;1.00;;
60867;SDS011;46702;48.370;10.794;2023-12-22T13:05:30;1.35;;;1.13;;
60867;SDS011;46702;48.370;10.794;2023-12-22T13:08:09;3.83;;;2.00;;
60867;SDS011;46702;48.370;10.794;2023-12-22T13:10:36;1.50;;;1.40;;
60867;SDS011;46702;48.370;10.794;2023-12-22T13:13:03;6.32;;;3.40;;
60867;SDS011;46702;48.370;10.794;2023-12-22T13:15:29;11.80;;;6.78;;
60867;SDS011;46702;48.370;10.794;2023-12-22T13:17:55;5.53;;;3.60;;
60867;SDS011;46702;48.370;10.794;2023-12-22T13:20:22;9.25;;;5.90;;
60867;SDS011;46702;48.370;10.794;2023-12-22T13:22:48;6.95;;;6.18;;
60867;SDS011;46702;48.370;10.794;2023-12-22T13:25:14;5.22;;;4.72;;
60867;SDS011;46702;48.370;10.794;2023-12-22T13:27:50;1.33;;;1.23;;
60867;SDS011;46702;48.370;10.794;2023-12-22T13:30:33;2.35;;;1.48;;
60867;SDS011;46702;48.370;10.794;2023-12-22T13:33:00;3.85;;;3.28;;
60867;SDS011;46702;48.370;10.794;2023-12-22T13:35:26;4.82;;;4.03;;
60867;SDS011;46702;48.370;10.794;2023-12-22T13:37:53;2.90;;;1.95;;
60867;SDS011;46702;48.370;10.794;2023-12-22T13:40:19;3.30;;;1.70;;
60867;SDS011;46702;48.370;10.794;2023-12-22T13:42:52;2.22;;;1.20;;
60867;SDS011;46702;48.370;10.794;2023-12-22T13:45:22;2.88;;;1.38;;
60867;SDS011;46702;48.370;10.794;2023-12-22T13:47:49;1.77;;;1.17;;
60867;SDS011;46702;48.370;10.794;2023-12-22T13:50:15;2.25;;;1.58;;
60867;SDS011;46702;48.370;10.794;2023-12-22T13:52:43;1.23;;;1.13;;
60867;SDS011;46702;48.370;10.794;2023-12-22T13:55:13;2.30;;;1.05;;
60867;SDS011;46702;48.370;10.794;2023-12-22T13:57:43;1.20;;;1.13;;
60867;SDS011;46702;48.370;10.794;2023-12-22T14:02:48;3.60;;;1.20;;
60867;SDS011;46702;48.370;10.794;2023-12-22T14:05:15;1.33;;;1.05;;
60867;SDS011;46702;48.370;10.794;2023-12-22T14:07:43;1.23;;;1.13;;
60867;SDS011;46702;48.370;10.794;2023-12-22T14:10:09;3.08;;;1.38;;
60867;SDS011;46702;48.370;10.794;2023-12-22T14:12:39;1.38;;;1.27;;
60867;SDS011;46702;48.370;10.794;2023-12-22T14:15:08;3.58;;;1.30;;
60867;SDS011;46702;48.370;10.794;2023-12-22T14:17:49;2.55;;;1.40;;
60867;SDS011;46702;48.370;10.794;2023-12-22T14:20:15;3.63;;;2.72;;
60867;SDS011;46702;48.370;10.794;2023-12-22T14:22:42;8.23;;;2.70;;
60867;SDS011;46702;48.370;10.794;2023-12-22T14:25:08;9.35;;;2.92;;
60867;SDS011;46702;48.370;10.794;2023-12-22T14:27:37;3.20;;;1.60;;
60867;SDS011;46702;48.370;10.794;2023-12-22T14:30:03;2.53;;;1.60;;
60867;SDS011;46702;48.370;10.794;2023-12-22T14:32:30;1.40;;;1.30;;
60867;SDS011;46702;48.370;10.794;2023-12-22T14:34:56;3.10;;;1.70;;
60867;SDS011;46702;48.370;10.794;2023-12-22T14:37:22;2.67;;;1.30;;
60867;SDS011;46702;48.370;10.794;2023-12-22T14:39:54;1.05;;;1.05;;
60867;SDS011;46702;48.370;10.794;2023-12-22T14:42:23;1.10;;;1.00;;
60867;SDS011;46702;48.370;10.794;2023-12-22T14:44:52;1.98;;;1.40;;
60867;SDS011;46702;48.370;10.794;2023-12-22T14:47:19;1.50;;;1.40;;
60867;SDS011;46702;48.370;10.794;2023-12-22T14:49:45;1.75;;;1.10;;
60867;SDS011;46702;48.370;10.794;2023-12-22T14:52:13;1.30;;;1.17;;